createdAt,value
2018-08-31T00:00:47.766Z,102439.49
2018-08-31T00:03:23.236Z,102441.22
2018-08-31T00:06:02.956Z,102433.91
2018-08-31T00:18:37.709Z,102436.62
2018-08-31T00:21:06.392Z,102418.98
2018-08-31T00:23:46.144Z,102419.44
2018-08-31T00:26:25.825Z,102415.58
2018-08-31T00:29:09.450Z,102410.81
2018-08-31T00:33:51.456Z,102417.83
2018-08-31T00:37:36.397Z,102410.11
2018-08-31T00:40:20.096Z,102406.28
2018-08-31T00:45:03.066Z,102396.77
2018-08-31T00:47:31.728Z,102399.13
2018-08-31T00:50:00.356Z,102398.27
2018-08-31T00:52:29.031Z,102404.80
2018-08-31T00:54:57.699Z,102408.78
2018-08-31T00:57:26.387Z,102398.00
2018-08-31T00:59:55.040Z,102402.48
2018-08-31T01:02:23.710Z,102404.74
2018-08-31T01:04:52.411Z,102403.53
2018-08-31T01:07:21.096Z,102400.11
2018-08-31T01:09:49.817Z,102401.80
2018-08-31T01:12:18.733Z,102398.89
2018-08-31T01:14:47.395Z,102396.54
2018-08-31T01:17:16.087Z,102389.70
2018-08-31T01:19:44.757Z,102389.70
2018-08-31T01:22:13.475Z,102389.70
2018-08-31T01:24:42.215Z,102394.44
2018-08-31T01:27:10.900Z,102391.84
2018-08-31T01:29:39.573Z,102390.59
2018-08-31T01:32:08.288Z,102391.10
2018-08-31T01:34:36.944Z,102389.47
2018-08-31T01:37:05.623Z,102391.66
2018-08-31T01:39:34.361Z,102388.22
2018-08-31T01:42:03.016Z,102380.82
2018-08-31T01:44:31.643Z,102381.70
2018-08-31T01:47:00.296Z,102380.11
2018-08-31T01:49:28.957Z,102375.47
2018-08-31T01:51:57.647Z,102376.44
2018-08-31T01:54:26.331Z,102382.55
2018-08-31T01:56:55.007Z,102375.66
2018-08-31T01:59:23.702Z,102379.22
2018-08-31T02:01:52.414Z,102388.36
2018-08-31T02:04:21.114Z,102383.14
2018-08-31T02:06:49.811Z,102382.76
2018-08-31T02:09:22.197Z,102379.22
2018-08-31T02:11:51.796Z,102381.45
2018-08-31T02:14:20.461Z,102384.06
2018-08-31T02:16:49.179Z,102382.70
2018-08-31T02:19:17.885Z,102384.95
2018-08-31T02:21:46.663Z,102380.25
2018-08-31T02:24:15.448Z,102373.78
2018-08-31T02:26:44.183Z,102374.67
2018-08-31T02:29:12.933Z,102366.03
2018-08-31T02:31:41.579Z,102365.22
2018-08-31T02:34:10.288Z,102370.45
2018-08-31T02:36:39.003Z,102370.03
2018-08-31T02:39:08.335Z,102367.92
2018-08-31T02:41:36.957Z,102367.50
2018-08-31T02:44:05.704Z,102361.44
2018-08-31T02:46:34.420Z,102362.88
2018-08-31T02:49:03.100Z,102363.85
2018-08-31T02:51:31.749Z,102360.94
2018-08-31T02:54:00.440Z,102360.96
2018-08-31T02:56:29.103Z,102359.71
2018-08-31T02:58:57.783Z,102359.29
2018-08-31T03:01:26.439Z,102358.92
2018-08-31T03:03:55.164Z,102358.92
2018-08-31T03:06:23.921Z,102360.31
2018-08-31T03:08:52.695Z,102366.92
2018-08-31T03:11:21.527Z,102369.97
2018-08-31T03:13:50.225Z,102364.80
2018-08-31T03:16:19.005Z,102374.02
2018-08-31T03:18:47.712Z,102373.21
2018-08-31T03:21:16.428Z,102375.83
2018-08-31T03:23:45.098Z,102373.73
2018-08-31T03:26:13.758Z,102370.75
2018-08-31T03:28:42.435Z,102375.98
2018-08-31T03:31:11.115Z,102374.73
2018-08-31T03:33:40.298Z,102380.39
2018-08-31T03:36:09.052Z,102379.16
2018-08-31T03:38:37.699Z,102381.77
2018-08-31T03:41:06.415Z,102377.05
2018-08-31T03:43:35.085Z,102376.63
2018-08-31T03:46:03.815Z,102377.12
2018-08-31T03:48:32.539Z,102376.69
2018-08-31T03:51:01.220Z,102377.12
2018-08-31T03:53:29.950Z,102378.50
2018-08-31T03:55:58.708Z,102372.42
2018-08-31T03:58:27.389Z,102377.22
2018-08-31T04:00:56.110Z,102371.19
2018-08-31T04:03:24.782Z,102369.96
2018-08-31T04:05:53.446Z,102371.32
2018-08-31T04:08:22.677Z,102373.56
2018-08-31T04:10:51.345Z,102376.19
2018-08-31T04:13:19.994Z,102375.37
2018-08-31T04:15:48.688Z,102376.31
2018-08-31T04:18:17.454Z,102369.50
2018-08-31T04:20:46.146Z,102370.02
2018-08-31T04:23:14.828Z,102368.78
2018-08-31T04:25:43.499Z,102365.36
2018-08-31T04:28:12.200Z,102366.67
2018-08-31T04:30:40.828Z,102362.80
2018-08-31T04:33:09.521Z,102360.69
2018-08-31T04:35:38.188Z,102359.41
2018-08-31T04:38:06.878Z,102358.98
2018-08-31T04:40:35.608Z,102359.46
2018-08-31T04:43:04.290Z,102361.70
2018-08-31T04:45:32.948Z,102358.25
2018-08-31T04:48:01.612Z,102356.19
2018-08-31T04:50:30.319Z,102360.55
2018-08-31T04:52:58.992Z,102360.11
2018-08-31T04:55:27.739Z,102358.44
2018-08-31T04:57:56.380Z,102358.92
2018-08-31T05:00:25.051Z,102361.16
2018-08-31T05:02:53.741Z,102362.91
2018-08-31T05:05:22.438Z,102360.42
2018-08-31T05:07:51.099Z,102363.48
2018-08-31T05:10:19.873Z,102364.48
2018-08-31T05:12:48.640Z,102368.39
2018-08-31T05:15:17.482Z,102367.56
2018-08-31T05:17:46.159Z,102366.70
2018-08-31T05:20:14.836Z,102368.89
2018-08-31T05:22:43.626Z,102369.75
2018-08-31T05:25:13.047Z,102371.48
2018-08-31T05:27:41.715Z,102370.67
2018-08-31T05:30:10.413Z,102370.25
2018-08-31T05:32:39.100Z,102366.34
2018-08-31T05:35:07.883Z,102369.86
2018-08-31T05:37:36.606Z,102366.39
2018-08-31T05:40:05.366Z,102368.14
2018-08-31T05:42:34.066Z,102369.02
2018-08-31T05:45:02.766Z,102375.53
2018-08-31T05:47:31.433Z,102373.40
2018-08-31T05:50:00.108Z,102374.28
2018-08-31T05:52:28.752Z,102376.02
2018-08-31T05:54:57.453Z,102375.64
2018-08-31T05:57:26.131Z,102377.00
2018-08-31T05:59:54.800Z,102380.48
2018-08-31T06:02:23.496Z,102377.88
2018-08-31T06:04:52.187Z,102374.45
2018-08-31T06:07:20.867Z,102380.97
2018-08-31T06:09:49.539Z,102377.06
2018-08-31T06:12:18.300Z,102376.20
2018-08-31T06:14:46.969Z,102377.06
2018-08-31T06:17:15.659Z,102375.76
2018-08-31T06:19:44.341Z,102377.08
2018-08-31T06:22:13.049Z,102381.48
2018-08-31T06:24:41.768Z,102383.16
2018-08-31T06:27:10.534Z,102374.03
2018-08-31T06:29:39.192Z,102371.79
2018-08-31T06:32:07.880Z,102373.86
2018-08-31T06:34:36.577Z,102371.63
2018-08-31T06:37:05.505Z,102369.81
2018-08-31T06:39:34.234Z,102369.77
2018-08-31T06:42:03.076Z,102375.83
2018-08-31T06:44:31.825Z,102380.11
2018-08-31T06:47:00.549Z,102379.66
2018-08-31T06:49:29.222Z,102376.57
2018-08-31T06:51:57.989Z,102374.77
2018-08-31T06:54:26.678Z,102379.43
2018-08-31T06:56:55.376Z,102374.58
2018-08-31T06:59:24.077Z,102373.59
2018-08-31T07:01:52.775Z,102369.61
2018-08-31T07:04:21.493Z,102364.32
2018-08-31T07:06:50.221Z,102363.77
2018-08-31T07:09:18.909Z,102363.69
2018-08-31T07:11:47.820Z,102375.77
2018-08-31T07:14:16.551Z,102373.54
2018-08-31T07:16:45.263Z,102372.63
2018-08-31T07:19:14.129Z,102376.52
2018-08-31T07:21:43.046Z,102379.05
2018-08-31T07:24:11.908Z,102381.16
2018-08-31T07:26:40.863Z,102374.96
2018-08-31T07:29:09.628Z,102378.80
2018-08-31T07:31:38.440Z,102373.51
2018-08-31T07:34:07.160Z,102373.80
2018-08-31T07:36:35.889Z,102373.65
2018-08-31T07:39:06.388Z,102373.06
2018-08-31T07:41:35.063Z,102373.79
2018-08-31T07:44:03.757Z,102374.91
2018-08-31T07:46:32.464Z,102371.25
2018-08-31T07:49:01.213Z,102373.70
2018-08-31T07:51:30.064Z,102383.07
2018-08-31T07:53:58.903Z,102377.62
2018-08-31T07:56:27.553Z,102379.25
2018-08-31T07:58:56.229Z,102377.78
2018-08-31T08:01:24.929Z,102378.05
2018-08-31T08:03:53.688Z,102381.37
2018-08-31T08:06:22.383Z,102385.59
2018-08-31T08:08:51.127Z,102386.22
2018-08-31T08:11:19.828Z,102392.58
2018-08-31T08:13:48.506Z,102391.48
2018-08-31T08:16:17.192Z,102388.25
2018-08-31T08:18:45.935Z,102387.59
2018-08-31T08:21:14.730Z,102380.44
2018-08-31T08:23:43.516Z,102381.95
2018-08-31T08:26:12.240Z,102380.88
2018-08-31T08:28:40.906Z,102380.63
2018-08-31T08:31:09.606Z,102380.45
2018-08-31T08:33:38.300Z,102378.03
2018-08-31T08:36:07.107Z,102384.31
2018-08-31T08:38:35.671Z,102371.05
2018-08-31T08:41:04.387Z,102380.88
2018-08-31T08:43:33.088Z,102380.16
2018-08-31T08:46:01.736Z,102382.07
2018-08-31T08:48:30.499Z,102381.84
2018-08-31T08:50:59.113Z,102375.03
2018-08-31T08:53:27.811Z,102383.09
2018-08-31T08:55:56.483Z,102375.83
2018-08-31T08:58:25.174Z,102376.86
2018-08-31T09:00:53.868Z,102377.89
2018-08-31T09:03:22.602Z,102379.41
2018-08-31T09:05:51.281Z,102373.44
2018-08-31T09:08:20.020Z,102380.22
2018-08-31T09:10:48.735Z,102374.70
2018-08-31T09:13:17.416Z,102375.78
2018-08-31T09:15:46.128Z,102375.53
2018-08-31T09:18:14.853Z,102369.55
2018-08-31T09:20:43.577Z,102370.19
2018-08-31T09:23:12.227Z,102367.27
2018-08-31T09:25:41.000Z,102366.92
2018-08-31T09:28:09.729Z,102363.48
2018-08-31T09:30:43.841Z,102361.44
2018-08-31T09:33:12.567Z,102359.89
2018-08-31T09:35:41.266Z,102356.91
2018-08-31T09:38:09.952Z,102356.19
2018-08-31T09:40:38.676Z,102351.11
2018-08-31T09:43:07.533Z,102347.30
2018-08-31T09:45:36.196Z,102344.88
2018-08-31T09:48:05.496Z,102345.88
2018-08-31T09:50:34.224Z,102337.34
2018-08-31T09:53:02.888Z,102343.13
2018-08-31T09:55:31.580Z,102340.37
2018-08-31T09:58:00.280Z,102343.02
2018-08-31T10:00:34.044Z,102338.42
2018-08-31T10:03:10.789Z,102336.36
2018-08-31T10:05:39.480Z,102339.19
2018-08-31T10:08:08.219Z,102329.19
2018-08-31T10:10:36.937Z,102330.64
2018-08-31T10:13:05.693Z,102320.41
2018-08-31T10:15:34.422Z,102314.34
2018-08-31T10:18:03.131Z,102316.03
2018-08-31T10:20:31.772Z,102317.34
2018-08-31T10:23:00.432Z,102315.98
2018-08-31T10:25:29.110Z,102315.56
2018-08-31T10:27:57.936Z,102302.33
2018-08-31T10:30:26.614Z,102306.08
2018-08-31T10:32:55.300Z,102310.50
2018-08-31T10:35:24.066Z,102305.17
2018-08-31T10:37:52.873Z,102304.44
2018-08-31T10:40:21.599Z,102307.31
2018-08-31T10:42:50.262Z,102305.16
2018-08-31T10:45:18.963Z,102302.23
2018-08-31T10:47:47.635Z,102295.77
2018-08-31T10:50:16.371Z,102292.17
2018-08-31T10:52:45.053Z,102295.28
2018-08-31T10:55:13.741Z,102300.64
2018-08-31T10:57:42.448Z,102288.55
2018-08-31T11:00:11.157Z,102287.84
2018-08-31T11:02:40.617Z,102294.52
2018-08-31T11:05:09.328Z,102296.20
2018-08-31T11:07:38.019Z,102291.64
2018-08-31T11:10:07.131Z,102289.91
2018-08-31T11:12:35.883Z,102288.19
2018-08-31T11:15:04.653Z,102289.28
2018-08-31T11:17:33.313Z,102283.66
2018-08-31T11:20:02.043Z,102276.91
2018-08-31T11:22:30.717Z,102285.82
2018-08-31T11:24:59.376Z,102285.73
2018-08-31T11:27:28.056Z,102288.28
2018-08-31T11:29:56.735Z,102287.23
2018-08-31T11:32:25.708Z,102290.66
2018-08-31T11:34:54.387Z,102279.81
2018-08-31T11:37:23.089Z,102277.96
2018-08-31T11:39:51.814Z,102275.68
2018-08-31T11:42:20.515Z,102279.73
2018-08-31T11:44:49.168Z,102277.89
2018-08-31T11:47:17.941Z,102281.90
2018-08-31T11:49:46.629Z,102283.36
2018-08-31T11:52:15.351Z,102283.82
2018-08-31T11:54:44.057Z,102276.47
2018-08-31T11:57:12.775Z,102272.86
2018-08-31T11:59:41.463Z,102278.34
2018-08-31T12:02:10.191Z,102277.52
2018-08-31T12:04:38.839Z,102275.52
2018-08-31T12:07:07.516Z,102270.25
2018-08-31T12:09:36.183Z,102276.58
2018-08-31T12:12:05.421Z,102271.48
2018-08-31T12:14:34.101Z,102276.38
2018-08-31T12:17:02.815Z,102272.42
2018-08-31T12:19:31.472Z,102272.33
2018-08-31T12:22:00.223Z,102272.52
2018-08-31T12:24:28.909Z,102266.08
2018-08-31T12:26:57.633Z,102269.30
2018-08-31T12:29:26.340Z,102264.95
2018-08-31T12:31:54.999Z,102269.10
2018-08-31T12:34:23.627Z,102266.83
2018-08-31T12:36:52.299Z,102265.36
2018-08-31T12:39:20.983Z,102259.91
2018-08-31T12:41:50.462Z,102266.66
2018-08-31T12:44:19.322Z,102265.02
2018-08-31T12:46:48.006Z,102274.07
2018-08-31T12:49:16.716Z,102269.80
2018-08-31T12:51:45.571Z,102267.37
2018-08-31T12:54:14.220Z,102269.63
2018-08-31T12:56:42.892Z,102267.97
2018-08-31T12:59:11.551Z,102265.38
2018-08-31T13:01:40.231Z,102267.80
2018-08-31T13:04:08.925Z,102270.02
2018-08-31T13:06:37.597Z,102272.94
2018-08-31T13:09:07.518Z,102270.47
2018-08-31T13:11:36.429Z,102268.38
2018-08-31T13:14:05.130Z,102265.66
2018-08-31T13:16:33.811Z,102260.80
2018-08-31T13:19:02.588Z,102255.98
2018-08-31T13:21:31.332Z,102255.20
2018-08-31T13:24:00.174Z,102247.56
2018-08-31T13:26:28.892Z,102241.82
2018-08-31T13:28:57.808Z,102239.53
2018-08-31T13:31:26.556Z,102240.91
2018-08-31T13:33:55.240Z,102231.66
2018-08-31T13:36:23.947Z,102240.48
2018-08-31T13:38:52.748Z,102244.49
2018-08-31T13:41:21.412Z,102246.00
2018-08-31T13:43:50.110Z,102246.31
2018-08-31T13:46:18.877Z,102231.27
2018-08-31T13:48:47.570Z,102230.59
2018-08-31T13:51:16.241Z,102229.96
2018-08-31T13:53:45.857Z,102220.41
2018-08-31T13:56:14.632Z,102225.38
2018-08-31T13:58:43.313Z,102224.09
2018-08-31T14:01:12.055Z,102222.11
2018-08-31T14:03:40.755Z,102212.56
2018-08-31T14:06:09.400Z,102214.53
2018-08-31T14:08:38.049Z,102216.06
2018-08-31T14:11:06.925Z,102215.60
2018-08-31T14:13:35.568Z,102215.73
2018-08-31T14:16:04.271Z,102212.22
2018-08-31T14:18:32.927Z,102215.50
2018-08-31T14:21:01.591Z,102210.27
2018-08-31T14:23:30.304Z,102217.38
2018-08-31T14:25:58.968Z,102216.05
2018-08-31T14:28:27.604Z,102212.06
2018-08-31T14:30:56.249Z,102215.23
2018-08-31T14:33:24.897Z,102218.56
2018-08-31T14:35:53.582Z,102223.41
2018-08-31T14:38:22.323Z,102228.69
2018-08-31T14:40:50.961Z,102237.27
2018-08-31T14:43:19.623Z,102239.50
2018-08-31T14:45:48.287Z,102238.34
2018-08-31T14:48:16.988Z,102243.61
2018-08-31T14:50:45.694Z,102242.88
2018-08-31T14:53:14.547Z,102245.27
2018-08-31T14:55:43.279Z,102234.97
2018-08-31T14:58:12.258Z,102238.43
2018-08-31T15:00:40.955Z,102236.58
2018-08-31T15:03:09.619Z,102231.49
2018-08-31T15:05:38.418Z,102232.09
2018-08-31T15:08:07.192Z,102228.28
2018-08-31T15:10:35.937Z,102224.65
2018-08-31T15:13:04.704Z,102218.14
2018-08-31T15:15:33.404Z,102222.68
2018-08-31T15:18:02.097Z,102227.89
2018-08-31T15:20:30.890Z,102223.92
2018-08-31T15:22:59.590Z,102223.53
2018-08-31T15:25:28.320Z,102219.94
2018-08-31T15:27:57.060Z,102220.32
2018-08-31T15:30:25.820Z,102222.12
2018-08-31T15:32:54.533Z,102216.43
2018-08-31T15:35:23.429Z,102224.65
2018-08-31T15:37:52.739Z,102219.00
2018-08-31T15:40:21.389Z,102218.23
2018-08-31T15:42:50.097Z,102226.78
2018-08-31T15:45:19.141Z,102224.25
2018-08-31T15:47:47.796Z,102227.25
2018-08-31T15:50:16.540Z,102228.75
2018-08-31T15:52:45.228Z,102236.92
2018-08-31T15:55:13.908Z,102234.22
2018-08-31T15:57:42.584Z,102236.34
2018-08-31T16:00:11.778Z,102244.69
2018-08-31T16:02:41.081Z,102241.30
2018-08-31T16:05:10.243Z,102244.30
2018-08-31T16:07:39.077Z,102237.12
2018-08-31T16:10:08.233Z,102235.79
2018-08-31T16:12:36.952Z,102232.49
2018-08-31T16:15:05.761Z,102238.47
2018-08-31T16:17:34.472Z,102240.02
2018-08-31T16:20:03.915Z,102244.44
2018-08-31T16:22:32.636Z,102237.45
2018-08-31T16:25:01.334Z,102237.30
2018-08-31T16:27:30.371Z,102233.74
2018-08-31T16:29:59.223Z,102237.92
2018-08-31T16:32:28.148Z,102231.36
2018-08-31T16:34:56.819Z,102234.33
2018-08-31T16:37:25.479Z,102230.55
2018-08-31T16:39:54.128Z,102225.55
2018-08-31T16:42:22.813Z,102231.16
2018-08-31T16:44:51.486Z,102230.16
2018-08-31T16:47:20.351Z,102228.18
2018-08-31T16:49:48.967Z,102227.05
2018-08-31T16:52:17.960Z,102230.76
2018-08-31T16:54:47.260Z,102232.84
2018-08-31T16:57:16.155Z,102230.38
2018-08-31T16:59:45.064Z,102229.17
2018-08-31T17:02:13.787Z,102230.70
2018-08-31T17:04:42.543Z,102235.45
2018-08-31T17:07:11.228Z,102234.52
2018-08-31T17:09:39.992Z,102237.45
2018-08-31T17:12:08.700Z,102242.27
2018-08-31T17:14:37.375Z,102244.45
2018-08-31T17:17:06.264Z,102249.36
2018-08-31T17:19:34.963Z,102244.06
2018-08-31T17:22:03.665Z,102247.56
2018-08-31T17:24:32.380Z,102240.95
2018-08-31T17:27:06.284Z,102237.83
2018-08-31T17:29:40.972Z,102236.52
2018-08-31T17:32:14.768Z,102235.19
2018-08-31T17:34:48.672Z,102233.98
2018-08-31T17:37:22.399Z,102237.09
2018-08-31T17:39:51.075Z,102244.38
2018-08-31T17:42:19.904Z,102237.33
2018-08-31T17:44:48.622Z,102236.20
2018-08-31T17:47:17.337Z,102233.74
2018-08-31T17:49:46.036Z,102235.34
2018-08-31T17:52:14.781Z,102232.06
2018-08-31T17:54:43.456Z,102235.84
2018-08-31T17:57:12.135Z,102240.97
2018-08-31T17:59:40.791Z,102241.73
2018-08-31T18:02:10.097Z,102242.75
2018-08-31T18:04:38.783Z,102240.41
2018-08-31T18:07:07.587Z,102236.27
2018-08-31T18:09:36.309Z,102242.69
2018-08-31T18:12:05.028Z,102239.95
2018-08-31T18:14:33.739Z,102241.92
2018-08-31T18:17:02.622Z,102236.05
2018-08-31T18:19:31.307Z,102237.09
2018-08-31T18:22:00.013Z,102237.77
2018-08-31T18:24:28.664Z,102242.47
2018-08-31T18:26:57.316Z,102236.55
2018-08-31T18:29:25.983Z,102241.55
2018-08-31T18:31:54.657Z,102242.28
2018-08-31T18:34:23.460Z,102247.11
2018-08-31T18:36:52.136Z,102250.86
2018-08-31T18:39:20.786Z,102252.01
2018-08-31T18:41:49.464Z,102253.23
2018-08-31T18:44:18.161Z,102256.91
2018-08-31T18:46:46.902Z,102259.80
2018-08-31T18:49:15.525Z,102261.80
2018-08-31T18:51:44.211Z,102262.91
2018-08-31T18:54:12.949Z,102264.05
2018-08-31T18:56:41.609Z,102264.69
2018-08-31T18:59:10.326Z,102267.14
2018-08-31T19:01:38.972Z,102270.03
2018-08-31T19:04:07.664Z,102272.95
2018-08-31T19:06:36.332Z,102275.77
2018-08-31T19:09:06.340Z,102279.05
2018-08-31T19:11:35.040Z,102277.58
2018-08-31T19:14:03.859Z,102281.35
2018-08-31T19:16:32.556Z,102290.30
2018-08-31T19:19:01.268Z,102293.12
2018-08-31T19:21:29.960Z,102292.89
2018-08-31T19:23:58.652Z,102297.87
2018-08-31T19:26:27.370Z,102305.50
2018-08-31T19:28:56.024Z,102308.31
2018-08-31T19:31:24.795Z,102309.34
2018-08-31T19:33:53.459Z,102317.82
2018-08-31T19:36:22.212Z,102319.70
2018-08-31T19:38:50.975Z,102316.67
2018-08-31T19:41:19.620Z,102314.20
2018-08-31T19:43:48.296Z,102323.60
2018-08-31T19:46:17.068Z,102323.30
2018-08-31T19:48:45.721Z,102324.27
2018-08-31T19:51:14.396Z,102325.65
2018-08-31T19:53:43.120Z,102326.67
2018-08-31T19:56:11.716Z,102330.73
2018-08-31T19:58:40.376Z,102330.73
2018-08-31T20:01:09.050Z,102339.17
2018-08-31T20:03:37.756Z,102340.59
2018-08-31T20:06:06.514Z,102345.47
2018-08-31T20:08:35.195Z,102345.56
2018-08-31T20:11:03.892Z,102338.21
2018-08-31T20:13:32.592Z,102340.45
2018-08-31T20:16:01.296Z,102341.87
2018-08-31T20:18:29.979Z,102340.16
2018-08-31T20:20:58.663Z,102345.03
2018-08-31T20:23:27.330Z,102350.87
2018-08-31T20:25:55.995Z,102351.73
2018-08-31T20:28:24.690Z,102354.92
2018-08-31T20:30:53.407Z,102362.91
2018-08-31T20:33:22.089Z,102353.77
2018-08-31T20:35:50.792Z,102355.95
2018-08-31T20:38:19.958Z,102350.34
2018-08-31T20:40:48.629Z,102353.93
2018-08-31T20:43:17.310Z,102349.21
2018-08-31T20:45:45.999Z,102356.73
2018-08-31T20:48:14.664Z,102357.19
2018-08-31T20:50:43.366Z,102366.52
2018-08-31T20:53:12.027Z,102364.41
2018-08-31T20:55:40.735Z,102365.36
2018-08-31T20:58:09.831Z,102366.28
2018-08-31T21:00:38.505Z,102358.83
2018-08-31T21:03:07.408Z,102356.28
2018-08-31T21:05:36.116Z,102359.84
2018-08-31T21:08:04.869Z,102352.48
2018-08-31T21:10:33.490Z,102350.31
2018-08-31T21:13:02.240Z,102358.32
2018-08-31T21:15:30.881Z,102357.92
2018-08-31T21:17:59.541Z,102357.52
2018-08-31T21:20:28.244Z,102363.20
2018-08-31T21:22:56.903Z,102359.80
2018-08-31T21:25:25.577Z,102365.06
2018-08-31T21:27:54.361Z,102363.36
2018-08-31T21:30:23.032Z,102370.41
2018-08-31T21:32:51.726Z,102361.27
2018-08-31T21:35:20.403Z,102362.19
2018-08-31T21:37:49.072Z,102362.25
2018-08-31T21:40:17.760Z,102360.48
2018-08-31T21:42:46.408Z,102357.44
2018-08-31T21:45:15.185Z,102350.45
2018-08-31T21:47:43.865Z,102351.47
2018-08-31T21:50:12.555Z,102351.02
2018-08-31T21:52:41.212Z,102349.33
2018-08-31T21:55:09.982Z,102362.97
2018-08-31T21:57:38.668Z,102355.13
2018-08-31T22:00:10.216Z,102353.04
2018-08-31T22:02:38.888Z,102356.59
2018-08-31T22:05:07.567Z,102357.55
2018-08-31T22:07:36.243Z,102348.87
2018-08-31T22:10:04.948Z,102351.11
2018-08-31T22:12:33.609Z,102350.34
2018-08-31T22:15:02.352Z,102350.81
2018-08-31T22:17:31.057Z,102353.05
2018-08-31T22:19:59.726Z,102343.92
2018-08-31T22:22:28.364Z,102344.84
2018-08-31T22:24:56.996Z,102346.70
2018-08-31T22:27:25.659Z,102348.18
2018-08-31T22:29:54.369Z,102345.70
2018-08-31T22:32:23.085Z,102337.59
2018-08-31T22:34:51.720Z,102350.20
2018-08-31T22:37:20.444Z,102346.71
2018-08-31T22:39:49.108Z,102345.64
2018-08-31T22:42:17.772Z,102350.77
2018-08-31T22:44:46.444Z,102348.13
2018-08-31T22:47:15.109Z,102347.72
2018-08-31T22:49:43.804Z,102344.69
2018-08-31T22:52:12.448Z,102342.15
2018-08-31T22:54:41.120Z,102340.44
2018-08-31T22:57:09.799Z,102337.89
2018-08-31T22:59:38.494Z,102338.91
2018-08-31T23:02:07.208Z,102341.14
2018-08-31T23:04:35.887Z,102345.55
2018-08-31T23:07:04.795Z,102326.95
2018-08-31T23:09:33.465Z,102339.98
2018-08-31T23:12:02.158Z,102342.70
2018-08-31T23:14:30.795Z,102343.62
2018-08-31T23:16:59.448Z,102345.89
2018-08-31T23:19:28.112Z,102346.71
2018-08-31T23:21:56.768Z,102342.86
2018-08-31T23:24:25.407Z,102341.14
2018-08-31T23:26:54.062Z,102343.86
2018-08-31T23:29:22.752Z,102345.64
2018-08-31T23:31:51.435Z,102347.42
2018-08-31T23:34:20.225Z,102343.55
2018-08-31T23:36:49.020Z,102340.06
2018-08-31T23:39:17.712Z,102342.79
2018-08-31T23:41:46.417Z,102341.93
2018-08-31T23:44:15.084Z,102339.76
2018-08-31T23:46:43.728Z,102342.45
2018-08-31T23:49:12.374Z,102348.20
2018-08-31T23:51:41.063Z,102346.89
2018-08-31T23:54:09.822Z,102346.03
2018-08-31T23:56:38.514Z,102347.05
2018-08-31T23:59:07.184Z,102350.05
